Parafrase — AAAAAAA — position and weather

sailwx.info

Track history (hours):
 
Tides and Currents Weather Stations Pressure Air Temp Water Temp Dewpoint Dewpoint Depression Visibility Wind Speed Wind Dir Waves Ship Positions

Parafrase

Last reported at 2017-Oct-19 00:54 UTC. Time now 2017-Oct-19 21:56 UTC.
Position N 25°43' W 080°05'.

Length 13 m.

Type: Sailing vessel. MMSI: 227214510.

Date/timePositionNaut miles runAvg speedWind from/ knotsBaromVisibWave heightAir tempDewpointWater temp
2017-Oct-19 00:54N 25°43' W 080°05'614.3
2017-Oct-19 00:30N 25°49' W 080°05'714.2
2017-Oct-19 00:00N 25°56' W 080°05'713.7
2017-Oct-18 23:30N 26°02' W 080°05'4 8.1
2017-Oct-18 22:59N 26°06' W 080°07'1 0.0
2017-Oct-17 18:50N 26°07' W 080°06'0 0.0
2017-Oct-17 18:29N 26°07' W 080°06'0 0.0
2017-Oct-17 09:04N 26°07' W 080°06'0 0.0
2017-Oct-17 06:40N 26°07' W 080°06'0 0.0
2017-Oct-17 06:22N 26°07' W 080°06'0 0.0
2017-Oct-17 05:52N 26°07' W 080°06'0 0.0
2017-Oct-16 15:38N 26°07' W 080°06'1 3.3
2017-Oct-16 15:17N 26°06' W 080°07'0 0.5
2017-Oct-16 14:55N 26°06' W 080°06'3 5.8
2017-Oct-16 14:26N 26°07' W 080°09'1 0.0
2017-Oct-14 13:34N 26°06' W 080°10'0 0.3
2017-Oct-14 13:28N 26°06' W 080°10'0 0.0
2017-Oct-14 12:49N 26°06' W 080°10'0 0.0
2017-Oct-14 12:28N 26°06' W 080°10'0 0.0
2017-Oct-14 11:49N 26°06' W 080°10'0 0.0
2017-Oct-14 11:19N 26°06' W 080°10'0 0.0
2017-Oct-14 10:52N 26°06' W 080°10'0 0.0
2017-Oct-14 10:22N 26°06' W 080°10'0 0.0
2017-Oct-14 09:52N 26°06' W 080°10'0 0.0
2017-Oct-14 09:22N 26°06' W 080°10'0 0.0
2017-Oct-14 08:52N 26°06' W 080°10'0 0.0
2017-Oct-14 08:25N 26°06' W 080°10'0 0.0
2017-Oct-14 07:55N 26°06' W 080°10'0 0.0
2017-Oct-14 07:25N 26°06' W 080°10'0 0.0
2017-Oct-14 06:55N 26°06' W 080°10'0 0.0
2017-Oct-14 06:25N 26°06' W 080°10'0 0.0
2017-Oct-14 05:52N 26°06' W 080°10'0 0.0
2017-Oct-14 05:28N 26°06' W 080°10'0 0.0
2017-Oct-14 04:58N 26°06' W 080°10'0 0.0
2017-Oct-14 04:28N 26°06' W 080°10'0 0.0
2017-Oct-14 03:58N 26°06' W 080°10'0 0.0
2017-Oct-14 03:28N 26°06' W 080°10'0 0.0
2017-Oct-14 02:58N 26°06' W 080°10'0 0.0
2017-Oct-14 02:28N 26°06' W 080°10'0 0.0
2017-Oct-13 23:19N 26°06' W 080°10'0 0.0
2017-Oct-13 22:46N 26°06' W 080°10'0 0.0
2017-Oct-13 22:22N 26°06' W 080°10'0 0.0
2017-Oct-13 21:52N 26°06' W 080°10'0 0.0
2017-Oct-13 21:22N 26°06' W 080°10'0 0.0
2017-Oct-13 21:00N 26°06' W 080°10'0 0.0
2017-Oct-13 20:30N 26°06' W 080°10'0 0.0
2017-Oct-13 19:48N 26°06' W 080°10'0 0.0
2017-Oct-13 19:30N 26°06' W 080°10'0 0.0
2017-Oct-13 19:00N 26°06' W 080°10'0 0.0
2017-Oct-13 18:30N 26°06' W 080°10'0 0.1
2017-Oct-13 17:59N 26°06' W 080°10'0 0.0
2017-Oct-13 17:21N 26°06' W 080°10'0 0.0
2017-Oct-13 16:51N 26°06' W 080°10'0 0.0
2017-Oct-13 14:24N 26°06' W 080°10'0 0.0
2017-Oct-13 13:54N 26°06' W 080°10'0 0.0
2017-Oct-13 13:24N 26°06' W 080°10'0 0.0
2017-Oct-13 12:57N 26°06' W 080°10'0 0.0
2017-Oct-13 11:57N 26°06' W 080°10'0 0.0
2017-Oct-13 11:30N 26°06' W 080°10'0 0.0
2017-Oct-13 10:57N 26°06' W 080°10'0 0.0
2017-Oct-13 10:18N 26°06' W 080°10'0 0.0
2017-Oct-13 09:48N 26°06' W 080°10'0 0.0
2017-Oct-13 08:33N 26°06' W 080°10'0 0.1
2017-Oct-13 08:30N 26°06' W 080°10'0 0.0
2017-Oct-13 08:00N 26°06' W 080°10'0 0.0
2017-Oct-13 07:30N 26°06' W 080°10'0 0.0
2017-Oct-13 07:00N 26°06' W 080°10'0 0.0
2017-Oct-13 06:21N 26°06' W 080°10'0 0.0
2017-Oct-13 05:51N 26°06' W 080°10'0 0.0
2017-Oct-13 05:09N 26°06' W 080°10'0 0.0
2017-Oct-13 04:54N 26°06' W 080°10'0 0.0
2017-Oct-13 03:51N 26°06' W 080°10'0 0.0
2017-Oct-13 03:21N 26°06' W 080°10'0 0.0
2017-Oct-13 02:42N 26°06' W 080°10'0 0.0
2017-Oct-13 02:12N 26°06' W 080°10'0 0.0
2017-Oct-13 01:54N 26°06' W 080°10'0 0.0
2017-Oct-13 01:27N 26°06' W 080°10'0 0.0
2017-Oct-13 00:57N 26°06' W 080°10'0 0.0
2017-Oct-13 00:27N 26°06' W 080°10'0 0.0
2017-Oct-13 00:00N 26°06' W 080°10'0 0.0
2017-Oct-12 23:30N 26°06' W 080°10'0 0.0
2017-Oct-12 23:01N 26°06' W 080°10'0 0.0
2017-Oct-12 22:30N 26°06' W 080°10'0 0.0
2017-Oct-12 22:01N 26°06' W 080°10'0 0.0
2017-Oct-12 21:31N 26°06' W 080°10'0 0.0
2017-Oct-12 21:00N 26°06' W 080°10'0 0.0
2017-Oct-12 20:30N 26°06' W 080°10'0 0.0
2017-Oct-12 20:00N 26°06' W 080°10'0 0.0
2017-Oct-12 19:30N 26°06' W 080°10'0 0.0
2017-Oct-12 18:52N 26°06' W 080°10'0 0.0
2017-Oct-12 18:19N 26°06' W 080°10'0 0.0
2017-Oct-12 17:49N 26°06' W 080°10'0 0.0
2017-Oct-12 17:07N 26°06' W 080°10'0 0.0
2017-Oct-12 16:52N 26°06' W 080°10'0 0.0
2017-Oct-12 16:22N 26°06' W 080°10'0 0.0
2017-Oct-12 15:55N 26°06' W 080°10'0 0.0
2017-Oct-12 14:37N 26°06' W 080°10'0 0.0
2017-Oct-12 14:22N 26°06' W 080°10'0 0.0
2017-Oct-12 13:58N 26°06' W 080°10'0 0.0
2017-Oct-12 13:13N 26°06' W 080°10'0 0.0
2017-Oct-12 12:43N 26°06' W 080°10'0 0.0
2017-Oct-12 12:28N 26°06' W 080°10'0 0.0
2017-Oct-12 11:43N 26°06' W 080°10'0 0.0
2017-Oct-12 11:28N 26°06' W 080°10'0 0.0
2017-Oct-12 10:58N 26°06' W 080°10'0 0.0
2017-Oct-12 10:28N 26°06' W 080°10'0 0.0
2017-Oct-12 09:58N 26°06' W 080°10'0 0.0
2017-Oct-12 09:04N 26°06' W 080°10'0 0.0
2017-Oct-12 08:58N 26°06' W 080°10'0 0.0
2017-Oct-12 08:04N 26°06' W 080°10'0 0.0
2017-Oct-12 07:34N 26°06' W 080°10'0 0.0
2017-Oct-12 07:22N 26°06' W 080°10'0 0.0
2017-Oct-12 06:52N 26°06' W 080°10'0 0.0
2017-Oct-12 06:19N 26°06' W 080°10'0 0.0
2017-Oct-12 05:52N 26°06' W 080°10'0 0.0
2017-Oct-12 05:07N 26°06' W 080°10'0 0.0
2017-Oct-12 04:52N 26°06' W 080°10'0 0.0
2017-Oct-12 04:25N 26°06' W 080°10'0 0.0
2017-Oct-12 03:55N 26°06' W 080°10'0 0.0
2017-Oct-12 03:25N 26°06' W 080°10'0 0.0
2017-Oct-12 02:52N 26°06' W 080°10'0 0.0
2017-Oct-12 02:22N 26°06' W 080°10'0 0.0
2017-Oct-12 01:55N 26°06' W 080°10'0 0.0
2017-Oct-12 01:28N 26°06' W 080°10'0 0.0
2017-Oct-12 00:58N 26°06' W 080°10'0 0.0
2017-Oct-12 00:13N 26°06' W 080°10'0 0.0
2017-Oct-11 23:55N 26°06' W 080°10'0 0.0
2017-Oct-11 23:25N 26°06' W 080°10'0 0.0
2017-Oct-11 22:58N 26°06' W 080°10'0 0.0
2017-Oct-11 22:13N 26°06' W 080°10'0 0.0
2017-Oct-11 21:58N 26°06' W 080°10'0 0.0
2017-Oct-11 21:16N 26°06' W 080°10'0 0.0
2017-Oct-11 20:58N 26°06' W 080°10'0 0.0
2017-Oct-11 19:46N 26°06' W 080°10'0 0.0
2017-Oct-11 19:19N 26°06' W 080°10'0 0.0
2017-Oct-11 18:52N 26°06' W 080°10'0 0.0
2017-Oct-11 18:29N 26°06' W 080°10'  
Track history (hours):
 
Tides and Currents Weather Stations Pressure Air Temp Water Temp Dewpoint Dewpoint Depression Visibility Wind Speed Wind Dir Waves Ship Positions

Parafrase

Last reported at 2017-Oct-19 00:54 UTC. Time now 2017-Oct-19 21:56 UTC.
Position N 25°43' W 080°05'.

Length 13 m.

Type: Sailing vessel. MMSI: 227214510.

Date/timePositionNaut miles runAvg speedWind from/ knotsBaromVisibWave heightAir tempDewpointWater temp
2017-Oct-19 00:54N 25°43' W 080°05'614.3
2017-Oct-19 00:30N 25°49' W 080°05'714.2
2017-Oct-19 00:00N 25°56' W 080°05'713.7
2017-Oct-18 23:30N 26°02' W 080°05'4 8.1
2017-Oct-18 22:59N 26°06' W 080°07'1 0.0
2017-Oct-17 18:50N 26°07' W 080°06'0 0.0
2017-Oct-17 18:29N 26°07' W 080°06'0 0.0
2017-Oct-17 09:04N 26°07' W 080°06'0 0.0
2017-Oct-17 06:40N 26°07' W 080°06'0 0.0
2017-Oct-17 06:22N 26°07' W 080°06'0 0.0
2017-Oct-17 05:52N 26°07' W 080°06'0 0.0
2017-Oct-16 15:38N 26°07' W 080°06'1 3.3
2017-Oct-16 15:17N 26°06' W 080°07'0 0.5
2017-Oct-16 14:55N 26°06' W 080°06'3 5.8
2017-Oct-16 14:26N 26°07' W 080°09'1 0.0
2017-Oct-14 13:34N 26°06' W 080°10'0 0.3
2017-Oct-14 13:28N 26°06' W 080°10'0 0.0
2017-Oct-14 12:49N 26°06' W 080°10'0 0.0
2017-Oct-14 12:28N 26°06' W 080°10'0 0.0
2017-Oct-14 11:49N 26°06' W 080°10'0 0.0
2017-Oct-14 11:19N 26°06' W 080°10'0 0.0
2017-Oct-14 10:52N 26°06' W 080°10'0 0.0
2017-Oct-14 10:22N 26°06' W 080°10'0 0.0
2017-Oct-14 09:52N 26°06' W 080°10'0 0.0
2017-Oct-14 09:22N 26°06' W 080°10'0 0.0
2017-Oct-14 08:52N 26°06' W 080°10'0 0.0
2017-Oct-14 08:25N 26°06' W 080°10'0 0.0
2017-Oct-14 07:55N 26°06' W 080°10'0 0.0
2017-Oct-14 07:25N 26°06' W 080°10'0 0.0
2017-Oct-14 06:55N 26°06' W 080°10'0 0.0
2017-Oct-14 06:25N 26°06' W 080°10'0 0.0
2017-Oct-14 05:52N 26°06' W 080°10'0 0.0
2017-Oct-14 05:28N 26°06' W 080°10'0 0.0
2017-Oct-14 04:58N 26°06' W 080°10'0 0.0
2017-Oct-14 04:28N 26°06' W 080°10'0 0.0
2017-Oct-14 03:58N 26°06' W 080°10'0 0.0
2017-Oct-14 03:28N 26°06' W 080°10'0 0.0
2017-Oct-14 02:58N 26°06' W 080°10'0 0.0
2017-Oct-14 02:28N 26°06' W 080°10'0 0.0
2017-Oct-13 23:19N 26°06' W 080°10'0 0.0
2017-Oct-13 22:46N 26°06' W 080°10'0 0.0
2017-Oct-13 22:22N 26°06' W 080°10'0 0.0
2017-Oct-13 21:52N 26°06' W 080°10'0 0.0
2017-Oct-13 21:22N 26°06' W 080°10'0 0.0
2017-Oct-13 21:00N 26°06' W 080°10'0 0.0
2017-Oct-13 20:30N 26°06' W 080°10'0 0.0
2017-Oct-13 19:48N 26°06' W 080°10'0 0.0
2017-Oct-13 19:30N 26°06' W 080°10'0 0.0
2017-Oct-13 19:00N 26°06' W 080°10'0 0.0
2017-Oct-13 18:30N 26°06' W 080°10'0 0.1
2017-Oct-13 17:59N 26°06' W 080°10'0 0.0
2017-Oct-13 17:21N 26°06' W 080°10'0 0.0
2017-Oct-13 16:51N 26°06' W 080°10'0 0.0
2017-Oct-13 14:24N 26°06' W 080°10'0 0.0
2017-Oct-13 13:54N 26°06' W 080°10'0 0.0
2017-Oct-13 13:24N 26°06' W 080°10'0 0.0
2017-Oct-13 12:57N 26°06' W 080°10'0 0.0
2017-Oct-13 11:57N 26°06' W 080°10'0 0.0
2017-Oct-13 11:30N 26°06' W 080°10'0 0.0
2017-Oct-13 10:57N 26°06' W 080°10'0 0.0
2017-Oct-13 10:18N 26°06' W 080°10'0 0.0
2017-Oct-13 09:48N 26°06' W 080°10'0 0.0
2017-Oct-13 08:33N 26°06' W 080°10'0 0.1
2017-Oct-13 08:30N 26°06' W 080°10'0 0.0
2017-Oct-13 08:00N 26°06' W 080°10'0 0.0
2017-Oct-13 07:30N 26°06' W 080°10'0 0.0
2017-Oct-13 07:00N 26°06' W 080°10'0 0.0
2017-Oct-13 06:21N 26°06' W 080°10'0 0.0
2017-Oct-13 05:51N 26°06' W 080°10'0 0.0
2017-Oct-13 05:09N 26°06' W 080°10'0 0.0
2017-Oct-13 04:54N 26°06' W 080°10'0 0.0
2017-Oct-13 03:51N 26°06' W 080°10'0 0.0
2017-Oct-13 03:21N 26°06' W 080°10'0 0.0
2017-Oct-13 02:42N 26°06' W 080°10'0 0.0
2017-Oct-13 02:12N 26°06' W 080°10'0 0.0
2017-Oct-13 01:54N 26°06' W 080°10'0 0.0
2017-Oct-13 01:27N 26°06' W 080°10'0 0.0
2017-Oct-13 00:57N 26°06' W 080°10'0 0.0
2017-Oct-13 00:27N 26°06' W 080°10'0 0.0
2017-Oct-13 00:00N 26°06' W 080°10'0 0.0
2017-Oct-12 23:30N 26°06' W 080°10'0 0.0
2017-Oct-12 23:01N 26°06' W 080°10'0 0.0
2017-Oct-12 22:30N 26°06' W 080°10'0 0.0
2017-Oct-12 22:01N 26°06' W 080°10'0 0.0
2017-Oct-12 21:31N 26°06' W 080°10'0 0.0
2017-Oct-12 21:00N 26°06' W 080°10'0 0.0
2017-Oct-12 20:30N 26°06' W 080°10'0 0.0
2017-Oct-12 20:00N 26°06' W 080°10'0 0.0
2017-Oct-12 19:30N 26°06' W 080°10'0 0.0
2017-Oct-12 18:52N 26°06' W 080°10'0 0.0
2017-Oct-12 18:19N 26°06' W 080°10'0 0.0
2017-Oct-12 17:49N 26°06' W 080°10'0 0.0
2017-Oct-12 17:07N 26°06' W 080°10'0 0.0
2017-Oct-12 16:52N 26°06' W 080°10'0 0.0
2017-Oct-12 16:22N 26°06' W 080°10'0 0.0
2017-Oct-12 15:55N 26°06' W 080°10'0 0.0
2017-Oct-12 14:37N 26°06' W 080°10'0 0.0
2017-Oct-12 14:22N 26°06' W 080°10'0 0.0
2017-Oct-12 13:58N 26°06' W 080°10'0 0.0
2017-Oct-12 13:13N 26°06' W 080°10'0 0.0
2017-Oct-12 12:43N 26°06' W 080°10'0 0.0
2017-Oct-12 12:28N 26°06' W 080°10'0 0.0
2017-Oct-12 11:43N 26°06' W 080°10'0 0.0
2017-Oct-12 11:28N 26°06' W 080°10'0 0.0
2017-Oct-12 10:58N 26°06' W 080°10'0 0.0
2017-Oct-12 10:28N 26°06' W 080°10'0 0.0
2017-Oct-12 09:58N 26°06' W 080°10'0 0.0
2017-Oct-12 09:04N 26°06' W 080°10'0 0.0
2017-Oct-12 08:58N 26°06' W 080°10'0 0.0
2017-Oct-12 08:04N 26°06' W 080°10'0 0.0
2017-Oct-12 07:34N 26°06' W 080°10'0 0.0
2017-Oct-12 07:22N 26°06' W 080°10'0 0.0
2017-Oct-12 06:52N 26°06' W 080°10'0 0.0
2017-Oct-12 06:19N 26°06' W 080°10'0 0.0
2017-Oct-12 05:52N 26°06' W 080°10'0 0.0
2017-Oct-12 05:07N 26°06' W 080°10'0 0.0
2017-Oct-12 04:52N 26°06' W 080°10'0 0.0
2017-Oct-12 04:25N 26°06' W 080°10'0 0.0
2017-Oct-12 03:55N 26°06' W 080°10'0 0.0
2017-Oct-12 03:25N 26°06' W 080°10'0 0.0
2017-Oct-12 02:52N 26°06' W 080°10'0 0.0
2017-Oct-12 02:22N 26°06' W 080°10'0 0.0
2017-Oct-12 01:55N 26°06' W 080°10'0 0.0
2017-Oct-12 01:28N 26°06' W 080°10'0 0.0
2017-Oct-12 00:58N 26°06' W 080°10'0 0.0
2017-Oct-12 00:13N 26°06' W 080°10'0 0.0
2017-Oct-11 23:55N 26°06' W 080°10'0 0.0
2017-Oct-11 23:25N 26°06' W 080°10'0 0.0
2017-Oct-11 22:58N 26°06' W 080°10'0 0.0
2017-Oct-11 22:13N 26°06' W 080°10'0 0.0
2017-Oct-11 21:58N 26°06' W 080°10'0 0.0
2017-Oct-11 21:16N 26°06' W 080°10'0 0.0
2017-Oct-11 20:58N 26°06' W 080°10'0 0.0
2017-Oct-11 19:46N 26°06' W 080°10'0 0.0
2017-Oct-11 19:19N 26°06' W 080°10'0 0.0
2017-Oct-11 18:52N 26°06' W 080°10'0 0.0
2017-Oct-11 18:29N 26°06' W 080°10'  

Dump ship's entire track history